RAAF Base Amberley
YAMB : now visible

Airfield :











YOU CAN JOIN US ON...

 
LOGIN :

Register | Disclaimer

   EN    FR    IT 

 









Legend :    VFR   Marginal VFR   IFR   Intensive IFR   Very Intensive IFR
Visi :
Ceiling :
>= 8 km
>= 3000ft
5 to 8 km
1000 to 3000 ft
1500m to 5 km
500 to 1000 ft
800 to 1500m
200 to 500 ft
< 800m
< 200 ft
Symbols :   Thunderstorms  Fog  Heavy snow  Heavy precipitations  Wind > 20 kt






- Airport Elevation : 91 ft


YAMB - RAAF Base Amberley

CURRENT METAR :
  • 210400Z 08007KT 9999 VCSH SCT037 SCT046 BKN060 26/16 Q1015

EXPIRED METARs :
  • 210330Z 06008KT 9999 FEW037 BKN043 BKN061 25/16 Q1016
  • 210300Z 08009KT 9999 FEW036 SCT043 BKN054 25/16 Q1016
  • 210230Z 08009KT 9999 SCT042 BKN070 27/17 Q1016
  • 210200Z 06007KT 030V090 9999 SCT042 BKN060 26/16 Q1016
  • 210130Z 07008KT 9999 SCT041 BKN059 26/16 Q1017

TAF TAF YAMB
Valid from the 21 at 02:00 until the 22 at 00:00 UTC


210208Z 2102/2200 07008KT 9999 -SHRA SCT040 BKN055
FM210400 08013KT 9999 NSW SCT045
FM211200 21006KT 9999 FEW025
FM212200 15010KT 9999 SCT030
YBBB FIR / Oceania



MET'MAP, your aeronautical weather chart ! - Copyright ORBIFLY December 2007 - Disclaimer

ORBIFLY MET'MAP TEAM :

Programming & Development : Alexandra Zaïnal
Concept & original design : Baudouin d'Aumeries
Assistance for programming : Marc-Olivier Méhu
Technical & hardware support : Manuel Goepfert

Contact : metmap@orbifly.com




SOURCES & CREDITS :

   NOAA       Earth
Advisory